Time;durP1;ratioP1;P1;durP2;ratioP2;P2;SDS_P1;SDS_P2;PMS_P1;PMS_P2;Temp;Humidity;BMP_temperature;BMP_pressure;BME280_temperature;BME280_humidity;BME280_pressure;Samples;Min_cycle;Max_cycle;Signal;HPM_P1;HPM_P2
2022/05/20 00:02:05;;;;;;;;;1.75;1.75;;;;;22.42;45.01;101383.78;5054056;28;45720;-49
2022/05/20 00:04:30;;;;;;;;;2.00;2.00;;;;;22.30;45.34;101369.25;5059958;28;45375;-51
2022/05/20 00:06:56;;;;;;;;;2.00;2.00;;;;;22.12;45.38;101342.63;5017322;28;45279;-50
2022/05/20 00:09:21;;;;;;;;;3.75;2.25;;;;;22.20;45.33;101348.53;5033278;28;45580;-51
2022/05/20 00:11:47;;;;;;;;;3.75;2.75;;;;;22.33;45.48;101369.53;5058054;28;46533;-50
2022/05/20 00:14:12;;;;;;;;;2.00;2.00;;;;;22.36;45.28;101364.50;5057690;28;45304;-48
2022/05/20 00:16:38;;;;;;;;;3.25;2.00;;;;;22.42;44.94;101360.59;5056093;28;45347;-52
2022/05/20 00:19:07;;;;;;;;;4.00;3.00;;;;;22.50;44.85;101360.03;5038320;28;45674;-48
2022/05/20 00:21:33;;;;;;;;;3.60;2.00;;;;;22.44;44.68;101347.16;5038270;28;45428;-48
2022/05/20 00:23:58;;;;;;;;;2.00;2.00;;;;;22.41;44.81;101345.75;5038165;28;45388;-49
2022/05/20 00:26:24;;;;;;;;;2.00;2.00;;;;;22.31;44.75;101321.41;5036838;28;45273;-49
2022/05/20 00:28:50;;;;;;;;;4.00;1.00;;;;;22.53;44.43;101350.28;5038604;28;45342;-49
2022/05/20 00:31:16;;;;;;;;;2.00;1.50;;;;;22.55;44.17;101348.03;5037752;28;46213;-48
2022/05/20 00:33:41;;;;;;;;;2.00;2.00;;;;;22.58;43.85;101351.09;5037962;28;45751;-48
2022/05/20 00:36:07;;;;;;;;;1.00;1.00;;;;;22.51;43.91;101314.19;5036813;28;45694;-49
2022/05/20 00:38:33;;;;;;;;;1.00;1.00;;;;;22.52;43.40;101315.88;5036841;28;45360;-46
2022/05/20 00:40:58;;;;;;;;;1.00;1.00;;;;;22.73;43.03;101343.88;5036983;28;45977;-51
2022/05/20 00:43:29;;;;;;;;;3.00;1.00;;;;;22.67;42.75;101356.19;5037615;28;45449;-47
2022/05/20 00:46:03;;;;;;;;;2.40;1.20;;;;;22.46;43.32;101348.56;5037908;28;45328;-47
2022/05/20 00:48:29;;;;;;;;;4.00;1.80;;;;;22.36;43.44;101344.91;5038120;28;45486;-45
2022/05/20 00:51:06;;;;;;;;;0.75;0.75;;;;;22.25;43.69;101339.28;5036256;28;47063;-47
2022/05/20 00:53:36;;;;;;;;;2.20;1.00;;;;;22.36;43.35;101348.53;5052675;28;45488;-48
2022/05/20 00:56:03;;;;;;;;;3.40;2.00;;;;;22.28;42.64;101344.34;5051829;28;45490;-49
2022/05/20 00:58:28;;;;;;;;;0.80;0.80;;;;;22.15;42.70;101317.75;5056716;28;45559;-51
2022/05/20 01:00:54;;;;;;;;;1.00;1.00;;;;;22.22;41.94;101334.28;5057699;28;45482;-48
2022/05/20 01:03:23;;;;;;;;;2.80;2.80;;;;;22.12;42.21;101345.41;5058098;28;45410;-51
2022/05/20 01:05:50;;;;;;;;;1.00;1.00;;;;;22.10;41.93;101345.72;5073838;28;45463;-52
2022/05/20 01:08:17;;;;;;;;;1.00;1.00;;;;;21.98;42.01;101340.34;5058079;28;45518;-50
2022/05/20 01:10:43;;;;;;;;;2.00;0.60;;;;;21.93;42.40;101313.25;5049963;28;45553;-51
2022/05/20 01:13:09;;;;;;;;;2.00;1.00;;;;;22.07;42.07;101323.91;5026700;28;45423;-47
2022/05/20 01:15:34;;;;;;;;;2.00;0.50;;;;;21.90;42.10;101291.47;5035697;28;45207;-49
2022/05/20 01:18:00;;;;;;;;;1.00;1.00;;;;;22.07;42.62;101323.91;5037810;28;45218;-47
2022/05/20 01:20:28;;;;;;;;;1.00;1.00;;;;;22.19;42.11;101307.72;5036494;28;46287;-47
2022/05/20 01:22:54;;;;;;;;;1.00;1.00;;;;;22.16;42.37;101287.84;5037326;28;45732;-51
2022/05/20 01:25:22;;;;;;;;;3.00;1.50;;;;;22.14;42.43;101292.91;5036221;28;45342;-47
2022/05/20 01:27:48;;;;;;;;;1.80;0.60;;;;;22.11;42.71;101299.88;5020278;28;45470;-50
2022/05/20 01:30:16;;;;;;;;;2.50;1.00;;;;;22.17;42.52;101297.91;5035971;28;46741;-47
2022/05/20 01:32:41;;;;;;;;;0.40;0.40;;;;;22.17;42.77;101287.59;5052947;28;45315;-48
2022/05/20 01:35:14;;;;;;;;;2.00;2.00;;;;;22.07;42.69;101274.44;5036150;28;45429;-52
2022/05/20 01:37:40;;;;;;;;;2.80;2.00;;;;;21.67;43.10;101218.16;5037468;28;45278;-48
2022/05/20 01:40:07;;;;;;;;;1.75;0.50;;;;;21.79;43.17;101236.66;5052348;28;46032;-54
2022/05/20 01:43:05;;;;;;;;;1.20;1.20;;;;;22.07;42.86;101268.00;5037346;28;45152;-48
2022/05/20 01:45:47;;;;;;;;;1.00;1.00;;;;;21.87;42.70;101233.31;5036031;28;45450;-50
2022/05/20 01:48:29;;;;;;;;;1.00;1.00;;;;;22.00;42.78;101262.69;5020458;28;45432;-48
2022/05/20 01:50:55;;;;;;;;;1.20;1.20;;;;;21.44;43.76;101185.16;5036772;28;45340;-50
2022/05/20 01:53:50;;;;;;;;;0.20;0.20;;;;;21.97;43.18;101254.84;5037080;28;45624;-51
2022/05/20 01:56:22;;;;;;;;;1.00;1.00;;;;;21.94;43.07;101255.41;5036962;28;45355;-51
2022/05/20 01:58:55;;;;;;;;;1.80;1.80;;;;;22.02;43.16;101263.25;5036209;28;45401;-47
2022/05/20 02:01:24;;;;;;;;;2.20;1.40;;;;;21.82;43.53;101258.44;5052289;28;46965;-49
2022/05/20 02:03:52;;;;;;;;;1.20;0.60;;;;;21.45;43.55;101195.22;5052294;28;45299;-49
2022/05/20 02:06:32;;;;;;;;;1.80;1.00;;;;;21.79;43.60;101242.25;5035586;28;45444;-48
2022/05/20 02:09:00;;;;;;;;;0.80;0.80;;;;;21.60;43.56;101200.00;5036132;28;45287;-48
2022/05/20 02:11:34;;;;;;;;;1.00;1.00;;;;;21.74;43.53;101212.34;5018783;28;48631;-46
2022/05/20 02:14:39;;;;;;;;;4.00;3.00;;;;;21.98;43.56;101245.34;5036875;28;45215;-47
2022/05/20 02:17:28;;;;;;;;;1.60;1.00;;;;;21.51;44.05;101191.31;5036723;28;45301;-50
2022/05/20 02:20:13;;;;;;;;;2.80;1.20;;;;;21.80;44.06;101238.34;5035807;28;45359;-49
2022/05/20 02:22:41;;;;;;;;;1.60;1.60;;;;;21.84;44.20;101230.25;5035121;28;47256;-46
2022/05/20 02:25:09;;;;;;;;;1.00;1.00;;;;;21.85;43.99;101229.13;5018510;28;45515;-48
2022/05/20 02:27:38;;;;;;;;;1.40;0.60;;;;;21.88;44.09;101239.75;5018756;28;45397;-46
2022/05/20 02:30:12;;;;;;;;;2.00;1.00;;;;;21.86;43.93;101225.22;5035524;28;45703;-53
2022/05/20 02:32:48;;;;;;;;;1.20;1.20;;;;;21.86;44.26;101234.44;5035370;28;46433;-51
2022/05/20 02:35:13;;;;;;;;;1.20;1.20;;;;;21.89;44.05;101221.88;5036282;28;45337;-48
2022/05/20 02:37:39;;;;;;;;;1.50;1.50;;;;;21.93;44.31;101231.38;5035588;28;45763;-48
2022/05/20 02:40:06;;;;;;;;;1.00;1.00;;;;;21.44;43.89;101134.91;5036507;28;45461;-48
2022/05/20 02:42:32;;;;;;;;;0.40;0.40;;;;;21.96;44.58;101230.81;5034847;28;47199;-48
2022/05/20 02:45:01;;;;;;;;;1.00;1.00;;;;;21.80;44.69;101210.41;5036277;28;45369;-48
2022/05/20 02:47:34;;;;;;;;;1.00;1.00;;;;;21.86;44.75;101211.25;5018901;28;45434;-50
2022/05/20 02:50:00;;;;;;;;;3.20;2.00;;;;;21.80;44.35;101205.66;5036475;28;45223;-46
2022/05/20 02:52:26;;;;;;;;;2.00;1.00;;;;;21.86;44.63;101219.63;5035669;28;46508;-47
2022/05/20 02:54:51;;;;;;;;;1.00;1.00;;;;;21.68;44.20;101171.53;5035841;28;45260;-49
2022/05/20 02:57:17;;;;;;;;;2.00;2.00;;;;;21.98;44.31;101203.44;5036023;28;45320;-48
2022/05/20 03:05:11;;;;;;;;;2.00;1.00;;;;;21.84;44.27;101210.69;5034995;28;45413;-47
2022/05/20 03:07:36;;;;;;;;;1.50;1.50;;;;;21.85;43.99;101201.19;5035885;28;45478;-49
2022/05/20 03:10:02;;;;;;;;;1.00;0.75;;;;;21.93;44.44;101212.66;5036163;28;45627;-50
2022/05/20 03:12:27;;;;;;;;;1.00;1.00;;;;;21.82;44.52;101204.53;5035456;28;45612;-53
2022/05/20 03:14:53;;;;;;;;;1.75;1.75;;;;;21.80;44.72;101207.59;5035532;28;45364;-51
2022/05/20 03:17:18;;;;;;;;;1.25;1.25;;;;;21.76;44.76;101212.06;5017878;28;45393;-48
2022/05/20 03:19:44;;;;;;;;;1.00;1.00;;;;;21.82;44.31;101212.94;5034311;28;45377;-48
2022/05/20 03:22:09;;;;;;;;;1.00;1.00;;;;;21.84;44.48;101213.47;5034135;28;45713;-50
2022/05/20 03:24:35;;;;;;;;;3.00;1.75;;;;;21.72;44.99;101205.38;5035269;28;45523;-48
2022/05/20 03:27:01;;;;;;;;;3.25;2.25;;;;;21.62;45.34;101211.75;5035573;28;45505;-49
2022/05/20 03:29:26;;;;;;;;;1.00;1.00;;;;;21.68;45.22;101213.44;5034330;28;45655;-49
2022/05/20 03:31:52;;;;;;;;;3.50;2.50;;;;;21.69;45.23;101215.13;5035196;28;45998;-52
2022/05/20 03:34:18;;;;;;;;;4.75;2.00;;;;;21.71;45.21;101214.88;5051022;28;45361;-48
2022/05/20 03:36:45;;;;;;;;;3.00;3.00;;;;;21.48;45.34;101173.16;5035164;28;45239;-48
2022/05/20 03:39:13;;;;;;;;;2.00;2.00;;;;;21.68;45.02;101205.06;5051148;28;45587;-48
2022/05/20 03:41:39;;;;;;;;;2.60;1.40;;;;;21.66;45.32;101201.66;5033691;28;45410;-49
2022/05/20 03:44:05;;;;;;;;;4.25;1.50;;;;;21.57;45.61;101193.03;5035256;28;45327;-48
2022/05/20 03:46:31;;;;;;;;;2.00;2.00;;;;;21.53;45.66;101195.53;5035495;28;45483;-47
2022/05/20 03:48:59;;;;;;;;;1.00;1.00;;;;;21.32;45.68;101179.81;5030306;28;45444;-52
2022/05/20 03:51:24;;;;;;;;;3.40;1.40;;;;;21.50;45.56;101190.47;5049501;28;46230;-49
2022/05/20 03:53:50;;;;;;;;;1.50;1.50;;;;;21.47;45.75;101185.47;5055150;28;45466;-47
2022/05/20 03:56:15;;;;;;;;;3.00;1.50;;;;;21.46;45.61;101189.34;5055218;28;45253;-49
2022/05/20 03:58:41;;;;;;;;;2.00;2.00;;;;;21.42;45.61;101187.38;5055584;28;45298;-52
2022/05/20 04:03:54;;;;;;;;;2.40;1.60;;;;;21.31;45.76;101180.94;5026660;28;45573;-48
2022/05/20 04:06:19;;;;;;;;;3.00;1.75;;;;;21.38;46.03;101181.50;5055577;28;45324;-49
2022/05/20 04:08:45;;;;;;;;;2.00;2.00;;;;;21.41;45.79;101186.56;5055459;28;45572;-50
2022/05/20 04:11:13;;;;;;;;;1.00;1.00;;;;;21.38;45.88;101181.50;5055191;28;46383;-50
2022/05/20 04:13:40;;;;;;;;;1.60;1.60;;;;;21.27;45.72;101141.56;5055540;28;45280;-50
2022/05/20 04:16:06;;;;;;;;;2.60;2.40;;;;;21.43;45.65;101172.28;5057405;28;45302;-46
2022/05/20 04:18:31;;;;;;;;;3.40;2.40;;;;;21.31;46.09;101165.03;5047230;28;45394;-46
2022/05/20 04:20:57;;;;;;;;;3.75;2.75;;;;;21.41;46.06;101167.00;5038190;28;45399;-48
2022/05/20 04:23:23;;;;;;;;;3.00;3.00;;;;;21.32;46.11;101166.72;5038451;28;45358;-49
2022/05/20 04:25:48;;;;;;;;;1.75;1.75;;;;;21.29;46.39;101180.38;5038626;28;45242;-50
2022/05/20 04:28:14;;;;;;;;;3.00;3.00;;;;;21.38;46.31;101184.28;5038635;28;45338;-48
2022/05/20 04:30:39;;;;;;;;;3.00;1.50;;;;;21.44;46.14;101186.00;5038715;28;46270;-47
2022/05/20 04:33:05;;;;;;;;;3.50;2.50;;;;;21.56;46.07;101182.94;5038109;28;45413;-49
2022/05/20 04:35:31;;;;;;;;;2.25;2.00;;;;;21.65;45.81;101189.69;5038455;28;45419;-50
2022/05/20 04:37:56;;;;;;;;;1.00;1.00;;;;;21.59;45.93;101193.56;5037505;28;45559;-48
2022/05/20 04:40:22;;;;;;;;;3.50;3.00;;;;;21.61;45.92;101194.13;5036367;28;47229;-52
2022/05/20 04:48:15;;;;;;;;;2.60;2.60;;;;;21.85;45.94;101178.84;5037948;28;45508;-49
2022/05/20 04:50:41;;;;;;;;;2.00;2.00;;;;;21.88;45.34;101200.66;5037878;28;45576;-49
2022/05/20 04:53:06;;;;;;;;;2.00;2.00;;;;;21.93;45.41;101204.28;5037577;28;45337;-54
2022/05/20 04:55:32;;;;;;;;;2.50;2.50;;;;;22.01;45.29;101202.03;5036832;28;45373;-49
2022/05/20 04:57:58;;;;;;;;;3.00;3.00;;;;;22.01;45.89;101204.84;5037896;28;45595;-51
2022/05/20 05:00:25;;;;;;;;;3.75;3.75;;;;;22.00;45.98;101200.38;5037312;28;46183;-46
2022/05/20 05:02:51;;;;;;;;;1.80;1.80;;;;;21.90;46.31;101202.03;5037691;28;45264;-48
2022/05/20 05:05:19;;;;;;;;;3.20;3.20;;;;;21.92;46.49;101205.38;5037538;28;45337;-50
2022/05/20 05:07:47;;;;;;;;;3.60;3.00;;;;;21.80;46.83;101213.19;5038084;28;45422;-52
2022/05/20 05:10:14;;;;;;;;;2.40;2.00;;;;;21.76;47.06;101217.66;5037398;28;46255;-53
2022/05/20 05:12:40;;;;;;;;;3.00;3.00;;;;;21.77;46.78;101211.78;5036401;28;45342;-49
2022/05/20 05:15:06;;;;;;;;;2.00;2.00;;;;;21.89;46.80;101208.72;5037699;28;45443;-49
2022/05/20 05:20:18;;;;;;;;;7.00;3.40;;;;;21.76;46.78;101176.59;5037429;28;45888;-52
2022/05/20 05:22:43;;;;;;;;;3.00;2.60;;;;;21.98;46.64;101206.22;5037385;28;45414;-51
2022/05/20 05:25:12;;;;;;;;;3.75;3.00;;;;;21.80;46.76;101162.91;5037956;28;45305;-48
2022/05/20 05:27:37;;;;;;;;;4.00;4.00;;;;;21.72;47.00;101161.50;5037031;28;45512;-49
2022/05/20 05:30:03;;;;;;;;;4.00;3.00;;;;;21.83;47.37;101193.09;5037441;28;45684;-47
2022/05/20 05:32:29;;;;;;;;;5.40;4.00;;;;;21.86;47.33;101191.69;5023880;28;45481;-47
2022/05/20 05:34:55;;;;;;;;;3.25;3.25;;;;;21.86;47.55;101200.91;5050042;28;45385;-49
2022/05/20 05:37:20;;;;;;;;;3.50;2.00;;;;;21.80;47.70;101193.63;5073284;28;45285;-49
2022/05/20 05:39:46;;;;;;;;;5.00;3.00;;;;;21.70;47.90;101186.09;5057480;28;45929;-51
2022/05/20 05:42:11;;;;;;;;;2.00;2.00;;;;;21.71;47.90;101179.38;5057375;28;45369;-48
2022/05/20 05:44:37;;;;;;;;;3.00;3.00;;;;;21.79;47.98;101178.00;5057379;28;45310;-48
2022/05/20 05:47:03;;;;;;;;;4.60;4.20;;;;;21.87;47.52;101155.09;5057624;28;45312;-49
2022/05/20 05:49:29;;;;;;;;;5.75;5.25;;;;;21.76;47.55;101125.47;5057226;28;46431;-51
2022/05/20 05:51:54;;;;;;;;;3.75;3.00;;;;;21.96;47.77;101147.00;5057342;28;45336;-54
2022/05/20 05:54:20;;;;;;;;;7.25;4.25;;;;;21.89;47.98;101143.66;5057550;28;45397;-53
2022/05/20 05:56:46;;;;;;;;;8.00;5.00;;;;;21.89;48.50;101157.63;5056055;28;45389;-50
2022/05/20 05:59:11;;;;;;;;;5.75;4.50;;;;;21.62;49.14;101141.91;5056804;28;45415;-48
2022/05/20 06:01:37;;;;;;;;;4.00;4.00;;;;;21.83;49.30;101183.88;5056691;28;45238;-49
2022/05/20 06:04:02;;;;;;;;;5.00;5.00;;;;;21.63;49.43;101146.38;5056820;28;45423;-48
2022/05/20 06:06:28;;;;;;;;;6.25;4.00;;;;;21.83;49.73;101181.94;5056987;28;45476;-51
2022/05/20 06:08:54;;;;;;;;;4.50;4.00;;;;;21.76;50.53;101182.19;5056311;28;46310;-47
2022/05/20 06:11:19;;;;;;;;;6.50;5.50;;;;;21.83;50.47;101197.84;5056832;28;45790;-49
2022/05/20 06:13:45;;;;;;;;;3.75;3.25;;;;;21.84;50.97;101196.72;5056398;28;45384;-52
2022/05/20 06:16:16;;;;;;;;;5.00;5.00;;;;;21.73;51.38;101190.28;5056963;28;45726;-51
2022/05/20 06:18:41;;;;;;;;;6.00;5.00;;;;;21.56;52.19;101182.13;5046076;28;46236;-49
2022/05/20 06:21:07;;;;;;;;;7.50;6.50;;;;;21.45;52.83;101173.69;5036475;28;45353;-49
2022/05/20 06:23:32;;;;;;;;;6.00;6.00;;;;;21.51;53.74;101153.06;5018503;28;45337;-52
2022/05/20 06:25:58;;;;;;;;;4.75;4.75;;;;;21.59;54.13;101150.84;5018587;28;45278;-47
2022/05/20 06:28:24;;;;;;;;;5.00;4.00;;;;;21.57;54.21;101103.66;5036012;28;46113;-48
2022/05/20 06:30:49;;;;;;;;;7.50;5.00;;;;;21.45;54.76;101091.91;5036014;28;45429;-51
2022/05/20 06:33:15;;;;;;;;;6.50;6.25;;;;;21.44;55.27;101073.50;5036413;28;45329;-48
2022/05/20 06:41:42;;;;;;;;;4.80;4.00;;;;;21.42;55.14;101121.22;5035750;28;45417;-50
2022/05/20 06:44:08;;;;;;;;;9.75;6.00;;;;;21.37;54.80;101133.22;5036125;28;45243;-49
2022/05/20 06:46:33;;;;;;;;;5.25;5.25;;;;;21.36;54.40;101133.50;5035085;28;45376;-50
2022/05/20 06:48:59;;;;;;;;;6.50;5.00;;;;;21.21;54.38;101070.09;5034516;28;45401;-52
2022/05/20 06:51:28;;;;;;;;;6.80;5.00;;;;;21.38;54.99;101086.59;5035904;28;45550;-49
2022/05/20 06:53:54;;;;;;;;;7.80;6.20;;;;;21.36;55.06;101041.38;5034268;28;45419;-55
2022/05/20 06:56:21;;;;;;;;;6.80;5.40;;;;;21.17;56.25;100996.44;5036258;28;45314;-52
2022/05/20 06:58:46;;;;;;;;;6.80;6.00;;;;;21.09;56.62;100955.94;5035724;28;46101;-50
2022/05/20 07:01:13;;;;;;;;;7.25;6.25;;;;;21.08;57.73;100927.19;5034092;28;45378;-52
2022/05/20 07:03:38;;;;;;;;;7.20;6.00;;;;;21.12;57.52;100933.06;5034923;28;45306;-51
2022/05/20 07:06:04;;;;;;;;;10.25;7.00;;;;;21.23;57.01;100915.19;5034618;28;45720;-51
2022/05/20 07:08:30;;;;;;;;;7.50;7.50;;;;;21.41;56.54;100912.97;5035788;28;46123;-48
2022/05/20 07:10:56;;;;;;;;;10.75;8.75;;;;;21.46;56.77;100910.13;5035750;28;45345;-46
2022/05/20 07:13:21;;;;;;;;;7.20;7.20;;;;;21.49;56.72;100892.84;5035611;28;45475;-50
2022/05/20 07:15:47;;;;;;;;;13.50;11.50;;;;;21.49;56.50;100889.19;5036265;28;45424;-49
2022/05/20 07:18:12;;;;;;;;;13.25;10.25;;;;;21.72;56.48;100928.84;5034976;28;45939;-48
2022/05/20 07:20:38;;;;;;;;;12.75;11.75;;;;;21.51;56.53;100884.19;5035835;28;45321;-52
2022/05/20 07:23:03;;;;;;;;;10.50;10.00;;;;;21.78;56.16;100934.13;5035559;28;45856;-49
2022/05/20 07:25:30;;;;;;;;;12.00;9.00;;;;;21.88;56.27;100961.19;5035952;28;45439;-50
2022/05/20 07:27:59;;;;;;;;;18.40;14.60;;;;;21.93;55.95;100968.75;5035503;28;46445;-47
2022/05/20 07:30:25;;;;;;;;;14.40;11.60;;;;;21.69;55.61;100927.44;5034092;28;45567;-49
2022/05/20 07:32:50;;;;;;;;;11.50;10.25;;;;;22.00;56.45;100954.47;5026637;28;45336;-53
2022/05/20 07:35:16;;;;;;;;;12.75;9.50;;;;;22.12;56.26;100963.38;5025085;28;45979;-48
2022/05/20 07:37:42;;;;;;;;;8.60;8.60;;;;;22.17;55.93;100982.06;5035514;28;45440;-47
2022/05/20 07:40:08;;;;;;;;;9.25;8.25;;;;;22.17;56.66;100991.31;5035610;28;45434;-48
2022/05/20 07:42:33;;;;;;;;;8.20;7.80;;;;;22.18;56.25;100992.13;5035482;28;45423;-50
2022/05/20 07:44:59;;;;;;;;;10.00;8.00;;;;;22.16;56.81;101005.56;5034591;28;45459;-52
2022/05/20 07:47:26;;;;;;;;;7.25;7.25;;;;;22.07;56.76;101034.09;5035259;28;46523;-47
2022/05/20 07:49:52;;;;;;;;;7.40;7.40;;;;;22.07;56.52;101047.22;5036199;28;45317;-46
2022/05/20 07:53:19;;;;;;;;;10.75;7.75;;;;;21.99;56.99;101048.63;5039038;28;45337;-46
2022/05/20 07:55:03;;;;;;;;;8.60;7.60;;;;;21.24;58.21;101003.41;5039143;28;45519;-51
2022/05/20 07:57:29;;;;;;;;;11.40;9.20;;;;;21.84;58.57;101069.06;5038494;28;46085;-50
2022/05/20 07:59:54;;;;;;;;;7.00;7.00;;;;;21.85;58.59;101058.69;5037710;28;45362;-46
2022/05/20 08:02:22;;;;;;;;;5.75;5.75;;;;;21.85;58.61;101053.97;5038568;28;45261;-49
2022/05/20 08:05:01;;;;;;;;;8.20;8.20;;;;;21.83;58.46;101059.00;5020690;28;45626;-51
2022/05/20 08:07:34;;;;;;;;;9.40;8.00;;;;;21.66;58.94;101017.34;5038137;28;45622;-48
2022/05/20 08:10:05;;;;;;;;;11.80;11.20;;;;;21.74;58.84;101036.38;5038341;28;45423;-49
2022/05/20 08:12:30;;;;;;;;;9.40;9.20;;;;;21.62;59.32;101010.66;5038366;28;45380;-48
2022/05/20 08:14:56;;;;;;;;;11.25;8.75;;;;;21.63;58.94;100992.78;5037526;28;45580;-48
2022/05/20 08:17:24;;;;;;;;;13.00;9.75;;;;;21.77;59.20;101030.22;5036839;28;46111;-50
2022/05/20 08:19:51;;;;;;;;;9.00;9.00;;;;;21.76;58.81;101022.97;5036605;28;45430;-51
2022/05/20 08:22:22;;;;;;;;;9.00;9.00;;;;;21.77;59.15;101033.00;5038476;28;45306;-50
2022/05/20 08:24:52;;;;;;;;;10.80;10.20;;;;;21.77;59.10;101005.09;5036995;28;45495;-47
2022/05/20 08:27:21;;;;;;;;;8.80;8.60;;;;;21.65;59.33;101001.72;5034195;28;46108;-50
2022/05/20 08:29:48;;;;;;;;;9.80;9.80;;;;;21.56;59.35;100992.22;5034228;28;45925;-48
2022/05/20 08:32:14;;;;;;;;;15.60;11.20;;;;;21.74;59.76;101024.34;5017706;28;45368;-53
2022/05/20 08:34:39;;;;;;;;;10.80;10.00;;;;;21.80;59.70;101020.44;5030351;28;45559;-52
2022/05/20 08:37:05;;;;;;;;;13.25;12.75;;;;;21.70;60.41;101001.75;5037312;28;47283;-48
2022/05/20 08:39:30;;;;;;;;;12.25;10.75;;;;;21.67;60.46;101058.16;5036810;28;45420;-51
2022/05/20 08:41:57;;;;;;;;;15.00;13.50;;;;;21.60;60.54;101088.31;5036840;28;45560;-52
2022/05/20 08:44:24;;;;;;;;;13.20;12.20;;;;;21.45;61.03;101109.50;5037238;28;45384;-50
2022/05/20 08:46:49;;;;;;;;;15.80;12.80;;;;;21.60;60.88;101172.91;5036656;28;45754;-51
2022/05/20 08:49:17;;;;;;;;;13.00;11.75;;;;;21.54;61.55;101199.13;5035720;28;45464;-52
2022/05/20 08:51:49;;;;;;;;;10.20;10.20;;;;;21.50;61.44;101111.47;5036290;28;45891;-50
2022/05/20 08:54:15;;;;;;;;;11.00;11.00;;;;;21.34;62.00;101082.69;5036143;28;45596;-53
2022/05/20 08:56:40;;;;;;;;;13.50;12.50;;;;;21.52;62.73;101031.88;5035880;28;45539;-50
2022/05/20 08:59:08;;;;;;;;;11.75;11.75;;;;;21.70;62.29;101043.63;5035006;28;45704;-54
2022/05/20 09:01:44;;;;;;;;;13.00;12.20;;;;;21.64;62.37;101058.69;5033865;28;45888;-51
2022/05/20 09:04:15;;;;;;;;;11.20;11.20;;;;;21.84;61.75;101055.09;5020023;28;45349;-54
2022/05/20 09:06:55;;;;;;;;;16.40;13.00;;;;;21.75;62.87;101040.84;5037467;28;46354;-54
2022/05/20 09:09:21;;;;;;;;;11.40;11.40;;;;;21.79;62.55;101041.94;5036381;28;45456;-49
2022/05/20 09:11:52;;;;;;;;;12.50;11.75;;;;;22.04;62.32;101045.81;5037688;28;45239;-49
2022/05/20 09:17:13;;;;;;;;;15.00;13.60;;;;;22.42;61.39;101044.63;5036914;28;45945;-51
2022/05/20 09:19:52;;;;;;;;;14.40;12.80;;;;;22.44;61.15;101036.78;5025850;28;45627;-54
2022/05/20 09:22:21;;;;;;;;;16.00;16.00;;;;;22.58;61.39;101023.06;5037431;28;45869;-53
2022/05/20 09:24:46;;;;;;;;;14.60;14.20;;;;;22.68;61.73;101024.97;5017938;28;45584;-48
2022/05/20 09:27:13;;;;;;;;;14.50;12.75;;;;;22.52;60.63;100966.28;5057106;28;46162;-54
2022/05/20 09:29:47;;;;;;;;;20.80;17.00;;;;;22.74;60.25;100971.47;5057108;28;45552;-52
2022/05/20 09:32:37;;;;;;;;;16.60;15.80;;;;;22.92;60.38;100993.47;5073013;28;45411;-55
2022/05/20 09:35:04;;;;;;;;;18.00;17.20;;;;;22.86;60.30;101032.69;5072854;28;45366;-52
2022/05/20 09:37:32;;;;;;;;;19.80;16.20;;;;;22.74;60.45;101127.31;5050260;28;46506;-50
2022/05/20 09:39:58;;;;;;;;;16.40;13.80;;;;;22.50;61.34;101219.38;5051482;28;45455;-52
2022/05/20 09:42:28;;;;;;;;;23.00;17.75;;;;;22.37;62.24;101195.59;5057211;28;45333;-53
2022/05/20 09:44:58;;;;;;;;;17.80;16.60;;;;;22.28;62.05;101052.75;5057216;28;45634;-55
2022/05/20 09:47:23;;;;;;;;;17.40;15.20;;;;;22.21;62.78;100921.69;5056578;28;46526;-56
2022/05/20 09:50:27;;;;;;;;;13.00;13.00;;;;;22.27;63.50;100900.97;5056974;28;45871;-56
2022/05/20 09:53:16;;;;;;;;;23.00;19.00;;;;;22.59;62.70;100957.59;4975029;28;45509;-54
2022/05/20 09:55:45;;;;;;;;;17.00;15.20;;;;;22.78;62.24;100998.91;4974739;28;45477;-57
2022/05/20 09:58:15;;;;;;;;;19.00;18.40;;;;;22.77;62.65;100960.84;5026687;28;46923;-50
2022/05/20 10:00:50;;;;;;;;;18.80;15.80;;;;;23.00;62.17;100973.28;5048413;28;45712;-54
2022/05/20 10:03:24;;;;;;;;;19.80;18.60;;;;;22.80;61.04;100919.16;5035684;28;45427;-54
2022/05/20 10:05:57;;;;;;;;;17.80;17.60;;;;;22.85;62.08;100926.66;5024940;28;45921;-56
2022/05/20 10:08:39;;;;;;;;;26.80;22.80;;;;;22.81;61.90;100918.00;5021313;28;46228;-54
2022/05/20 10:11:31;;;;;;;;;27.00;21.80;;;;;22.95;61.47;100928.53;5031225;28;45535;-55
2022/05/20 10:14:19;;;;;;;;;28.40;22.80;;;;;22.97;61.66;100946.72;5033802;28;45339;-48
2022/05/20 10:16:58;;;;;;;;;24.20;23.20;;;;;22.98;61.22;100958.72;4997051;28;45391;-50
2022/05/20 10:20:01;;;;;;;;;24.40;24.40;;;;;22.99;61.20;100966.84;5032899;28;45546;-48
2022/05/20 10:22:57;;;;;;;;;27.20;24.40;;;;;22.96;61.65;100978.63;5035566;28;45556;-54
2022/05/20 10:25:34;;;;;;;;;23.20;23.20;;;;;22.96;61.58;100995.44;5015217;28;45539;-51
2022/05/20 10:34:09;;;;;;;;;26.20;21.80;;;;;22.83;62.23;100965.28;5034097;28;45419;-50
2022/05/20 10:36:56;;;;;;;;;24.25;23.00;;;;;23.03;61.35;100969.91;5033713;28;45430;-52
2022/05/20 10:39:33;;;;;;;;;25.40;20.00;;;;;23.18;61.29;100957.75;5035665;28;45259;-51
2022/05/20 10:42:36;;;;;;;;;28.40;27.00;;;;;23.38;60.91;100967.13;5034705;28;45752;-52
2022/05/20 10:48:48;;;;;;;;;26.80;24.00;;;;;23.85;59.42;100947.06;4972684;28;45511;-54
2022/05/20 10:51:16;;;;;;;;;27.00;24.40;;;;;23.86;59.74;100934.72;5012672;28;45651;-55
2022/05/20 10:54:06;;;;;;;;;29.00;26.40;;;;;23.92;59.27;100920.38;5013757;28;45437;-50
2022/05/20 10:56:43;;;;;;;;;29.40;28.00;;;;;24.05;59.44;100941.22;5032423;28;45413;-49
2022/05/20 10:59:50;;;;;;;;;31.00;29.40;;;;;23.69;59.32;100883.63;5035123;28;45571;-52
2022/05/20 11:02:16;;;;;;;;;24.00;22.40;;;;;24.33;59.75;100957.47;5011978;28;45500;-48
2022/05/20 11:05:23;;;;;;;;;25.00;24.00;;;;;24.18;59.61;100958.47;5013640;28;46510;-52
2022/05/20 11:08:12;;;;;;;;;22.60;22.60;;;;;24.38;59.36;100953.75;5021961;28;45456;-50
2022/05/20 11:11:00;;;;;;;;;30.40;27.00;;;;;24.28;59.65;100974.34;5034850;28;45372;-55
2022/05/20 11:13:47;;;;;;;;;30.80;27.60;;;;;24.31;59.50;100987.75;5034743;28;45570;-50
2022/05/20 11:16:39;;;;;;;;;35.20;31.80;;;;;24.46;59.67;100990.38;5035056;28;45760;-54
2022/05/20 11:19:23;;;;;;;;;31.20;28.20;;;;;24.54;59.60;101004.88;5039209;28;45416;-50
2022/05/20 11:22:05;;;;;;;;;30.60;27.00;;;;;24.56;59.91;101006.25;5033664;28;45373;-50
2022/05/20 11:25:08;;;;;;;;;28.60;27.20;;;;;24.59;60.29;101016.03;5033642;28;45402;-52
2022/05/20 11:28:19;;;;;;;;;20.80;19.40;;;;;24.61;60.28;101013.75;5033918;28;45499;-51
2022/05/20 11:30:56;;;;;;;;;29.80;25.40;;;;;24.49;61.03;101012.22;4928454;28;45511;-54
2022/05/20 11:33:27;;;;;;;;;23.60;22.00;;;;;24.61;61.37;101013.75;5038396;28;45473;-53
2022/05/20 11:36:15;;;;;;;;;22.40;19.80;;;;;24.67;61.04;100987.28;5055201;28;45340;-54
2022/05/20 11:38:48;;;;;;;;;24.20;20.80;;;;;24.98;60.52;100981.25;5053778;28;46333;-56
2022/05/20 11:41:16;;;;;;;;;23.40;23.40;;;;;25.24;60.07;101000.50;5055381;28;45321;-52
2022/05/20 11:44:03;;;;;;;;;24.40;21.20;;;;;25.31;59.79;101008.53;5054940;28;45459;-55
2022/05/20 11:46:59;;;;;;;;;21.00;19.00;;;;;25.26;59.71;100975.75;5055359;28;45680;-54
2022/05/20 11:49:49;;;;;;;;;17.00;17.00;;;;;25.56;58.66;100982.00;5039230;28;46264;-54
2022/05/20 11:52:19;;;;;;;;;18.00;15.80;;;;;25.65;57.26;100975.66;5055180;28;45383;-53
2022/05/20 11:55:12;;;;;;;;;17.00;14.00;;;;;25.41;55.92;100940.13;5053878;28;45397;-51
2022/05/20 11:57:40;;;;;;;;;13.60;13.60;;;;;25.72;55.93;100962.06;5055420;28;46100;-50
2022/05/20 12:00:10;;;;;;;;;17.80;17.00;;;;;25.73;55.86;100948.84;5036578;28;45772;-53
2022/05/20 12:02:57;;;;;;;;;15.00;14.00;;;;;25.61;54.22;100941.72;5037262;28;45861;-56
2022/05/20 12:05:25;;;;;;;;;10.80;10.80;;;;;25.67;54.18;100951.75;5038051;28;45500;-55
2022/05/20 12:07:51;;;;;;;;;13.00;13.00;;;;;25.20;53.72;100864.66;5054885;28;45483;-57
2022/05/20 12:10:34;;;;;;;;;10.00;9.00;;;;;25.82;52.87;100966.66;5053391;28;46827;-50